Skip Navigation Links Skip Navigation Links

Current Weather

Watertown Muni, Watertown, Wis.

For information only: do not use for flight planning or navigation.
Latest weather
Observation time Friday, May 29, 2020 4:35 PM CDT
Local time Friday, May 29, 2020 4:59 PM CDT
Flight conditions Visual Meteorological Conditions
Winds
Wind direction West (280°)
Wind speed 12 mph
Visibility 10 mi.
Sky condition
Ceiling 6,000 ft. overcast
Cloud layer scattered clouds 5,000 ft.
Cloud layer overcast 6,000 ft.
Temperature 63°F
Dewpoint 47°F
Altimeter 30.03 in.Hg
Derived measurements
Relative humidity 57%
Density altitude 1103 ft.
Remarks
Fully automated report.
Automated weather observing station with precipitation discriminator.
METAR KRYV 292135Z AUTO 28010KT 10SM SCT050 OVC060 17/08 A3003 RMK AO2 T01700084

Settings

Location code

InnerDrive.Weather 4.0.6770.0 Release CLR 4.0.30319.42000
Copyright ©2018 Inner Drive Technology. All rights reserved. Portions Copyright ©1986-2018 David Braverman.

Find weather

Site navigation


Skip Navigation Links

Place info

Page info

PayPal - The safer, easier way to pay online!

Return home.

Copyright ©2020 Inner Drive Technology. Purveyors of fine, hand-crafted computer software. Page printed 2020-05-29T21:59:44 UTC.